Yellowstone National Park, WY

3:33 PM MST on November 24, 2014 (GMT -0700)
RAWS GREBE WY US | Change Station
CLOSE
Current Station
Personal Weather Station
Location: Yellowstone National Park, WY
Elevation: 7899 ft
Nearby Weather Stations

Elev 7899 ft 44.72 °N, 110.51 °W | Updated 44 minutes ago

Mostly Cloudy
Mostly Cloudy
23 °F
Feels Like 18 °F
N
4
Wind Variable Wind from WSW
Gusts 13.0 mph

Today
High -- | Low -- °F
--% Chance of Precip.
Yesterday
High -- | Low -- °F
Precip. -- in
7:30 AM 4:45 PM
Waxing Crescent, 7% visible
Pressure 30.31 in
Visibility -9999.0 miles
Clouds
Windchill 18 °F
Dew Point 10 °F
Humidity 56%
Rainfall 0.01 in
Snow Depth Not available.
UV Not available.
Pollen .10 out of 12
Air Quality Not available.
Flu Activity Not available.
METAR KP60 242156Z AUTO 26007KT 230V300 M05/M13 A3019 RMK AO1 SLP262 T10501133 $

More Conditions Fewer Conditions

Pressure 30.31 in
Visibility -9999.0 miles
Clouds
Windchill 18 °F
Dew Point 10 °F
Humidity 56%
Rainfall 0.01 in
Snow Depth Not available.
UV Not available.
Pollen .10 out of 12
Air Quality Not available.
Flu Activity Not available.
METAR KP60 242156Z AUTO 26007KT 230V300 M05/M13 A3019 RMK AO1 SLP262 T10501133 $

More Conditions Fewer Conditions

10-Day Weather Forecast

Almanac

Astronomy

Nov. 24, 2014 Rise Set
Actual Time
Civil Twilight
Nautical Twilight
Astronomical Twilight
Moon
Length of Visible Light
Length of Day
Tomorrow will be .
, % of the Moon is Illuminated

Today's Extremes

State Highs State Lows

Community

WunderPhotos

Upload Photos

1,773,427 photos uploaded!

WunderBlogs® & News

Nearby

Air Quality

  Air Quality AQ Index Pollutant
Not available.

Snow Depth

Station Depth Elevation

Earthquake Activity

City Distance Mag. Time & Date
Minimum magnitude displayed is 2.5.

Coastal Water Temperatures

Place Temperature

Nearby Weather Stations